EDT,Max TemperatureF,Mean TemperatureF,Min TemperatureF,Max Dew PointF,MeanDew PointF,Min DewpointF,Max Humidity, Mean Humidity, Min Humidity, Max Sea Level PressureIn, Mean Sea Level PressureIn, Min Sea Level PressureIn, Max VisibilityMiles, Mean VisibilityMiles, Min VisibilityMiles, Max Wind SpeedMPH, Mean Wind SpeedMPH, Max Gust SpeedMPH,PrecipitationIn, CloudCover, Events, WindDirDegrees
2013-7-1,80,70,60,64,61,58,99,83,47,30.02,29.92,29.86,10,8,2,12,1,,0.00,6,Rain,173
2013-7-2,81,72,62,66,62,56,99,78,43,30.18,30.07,30.01,10,8,2,9,1,17,0.00,5,Rain,166
2013-7-3,72,66,60,68,63,60,100,97,77,30.27,30.21,30.15,10,6,1,4,0,,0.01,8,Rain,320
2013-7-4,72,66,59,69,63,59,100,97,82,30.26,30.23,30.19,10,9,1,5,0,,0.00,7,Rain,126
2013-7-5,77,70,63,67,63,61,100,83,59,30.28,30.25,30.21,10,9,2,7,1,,0.01,5,Rain,159
2013-7-6,77,70,63,68,65,63,100,88,65,30.25,30.22,30.17,10,8,2,7,1,,0.00,6,Rain,169
2013-7-7,77,70,64,68,66,64,100,88,65,30.24,30.20,30.17,10,10,3,7,1,,0.00,6,Rain,152
2013-7-8,84,74,64,67,64,61,99,78,47,30.26,30.23,30.17,10,10,3,8,1,,0.01,6,Rain,263
2013-7-9,85,74,64,70,67,64,100,87,51,30.26,30.21,30.15,10,10,5,8,0,,0.00,5,Rain,257
2013-7-10,85,75,65,69,66,62,100,84,46,30.21,30.11,30.03,10,9,1,12,1,22,0.01,5,Rain,238
2013-7-11,81,74,66,68,67,64,100,87,57,30.05,30.01,29.94,10,9,5,6,0,,0.00,4,,303
2013-7-12,84,74,62,66,63,59,100,80,42,30.05,29.99,29.95,10,8,0,8,1,,0.01,5,Fog-Rain,359
2013-7-13,79,70,61,65,62,60,100,82,53,30.16,30.11,30.04,10,9,5,8,0,,0.00,6,Rain,140
2013-7-14,75,70,64,69,65,62,100,90,69,30.32,30.23,30.15,10,8,2,6,0,16,0.01,8,Rain,117
2013-7-15,82,70,59,68,63,58,98,80,51,30.39,30.35,30.30,10,8,0,4,0,,0.00,6,Fog,120
2013-7-16,86,74,62,68,64,61,99,81,48,30.41,30.37,30.30,10,8,0,7,0,,0.00,4,Fog-Rain,148
2013-7-17,85,74,63,71,65,62,99,86,47,30.39,30.33,30.24,10,7,0,13,0,16,0.00,5,Fog-Rain,108
2013-7-18,84,72,61,70,65,61,100,88,53,30.32,30.24,30.16,10,7,2,10,0,16,0.01,5,Rain,91
2013-7-19,84,74,63,68,64,58,98,82,45,30.23,30.16,30.08,10,6,0,7,0,,0.00,5,Fog,251
2013-7-20,82,72,63,70,66,63,100,88,54,30.14,30.09,30.02,10,6,0,7,0,,0.00,5,Fog-Rain,1
2013-7-21,83,74,66,70,67,64,100,89,53,30.11,30.06,30.01,10,7,1,8,0,17,0.01,6,Rain,327
2013-7-22,81,73,65,69,65,62,100,83,52,30.08,30.01,29.92,10,8,3,14,0,18,0.00,6,Rain,243
2013-7-23,82,70,59,67,63,58,99,81,52,30.01,29.96,29.89,10,7,0,6,1,,0.00,4,Fog,318
2013-7-24,83,72,60,68,63,60,99,80,48,29.95,29.92,29.87,10,7,0,7,1,,0.00,2,Fog,304
2013-7-25,84,72,59,63,59,46,99,75,27,30.10,30.01,29.95,10,7,0,10,1,,0.00,3,Fog,314
2013-7-26,69,61,57,65,59,57,99,96,79,30.17,30.13,30.10,10,3,0,5,0,,0.00,5,Fog,60
2013-7-27,,,,,,,,,,,,,,,,,,,,,,
2013-7-28,,,,,,,,,,,,,,,,,,,,,,
2013-7-29,81,70,58,58,52,41,96,56,24,30.29,30.22,30.17,10,10,10,8,2,,0.00,0,,323
2013-7-30,84,68,52,66,58,52,99,79,35,30.33,30.27,30.21,10,8,0,5,0,,0.00,3,Fog,358
2013-7-31,74,68,63,68,65,63,100,90,68,30.25,30.16,30.06,10,9,2,7,0,,0.00,8,Rain,123